Terminal Aerodrome Forecast
Issued by NWS

Home | Current Version | Previous Version | Text Only | Print | Product List | Glossary On
Versions: 1 2 3 4 5 6 7 8 9 10 11 12 13 14 15
000
FTUS45 KABQ 012129 AAB
TAFLVS
TAF AMD
KLVS 012129Z 0121/0218 02007KT P6SM VCTS OVC080CB
     FM012300 24012KT P6SM VCSH BKN080
     FM020300 27010KT P6SM OVC080
     FM020900 23006KT P6SM BKN100=

USA.gov is the U.S. government's official web portal to all federal, state and local government web resources and services.